createdAt,value
2018-10-06T00:01:28.964Z,98785.79
2018-10-06T00:04:03.688Z,98779.07
2018-10-06T00:06:38.164Z,98779.95
2018-10-06T00:09:12.674Z,98777.25
2018-10-06T00:11:47.316Z,98779.95
2018-10-06T00:14:21.964Z,98778.81
2018-10-06T00:16:56.564Z,98781.35
2018-10-06T00:19:31.254Z,98778.39
2018-10-06T00:22:05.809Z,98774.97
2018-10-06T00:24:40.456Z,98778.16
2018-10-06T00:27:15.211Z,98772.01
2018-10-06T00:29:49.795Z,98771.32
2018-10-06T00:32:24.509Z,98772.00
2018-10-06T00:34:59.109Z,98779.07
2018-10-06T00:37:33.544Z,98769.27
2018-10-06T00:40:08.220Z,98770.52
2018-10-06T00:42:42.700Z,98761.75
2018-10-06T00:45:17.301Z,98761.97
2018-10-06T00:47:52.662Z,98755.14
2018-10-06T00:50:27.277Z,98761.64
2018-10-06T00:53:01.854Z,98762.32
2018-10-06T00:55:36.341Z,98758.53
2018-10-06T00:58:11.028Z,98758.76
2018-10-06T01:00:45.537Z,98756.14
2018-10-06T01:03:20.313Z,98751.70
2018-10-06T01:05:55.125Z,98742.36
2018-10-06T01:08:29.933Z,98743.27
2018-10-06T01:11:04.530Z,98739.39
2018-10-06T01:13:39.115Z,98729.26
2018-10-06T01:16:13.749Z,98730.97
2018-10-06T01:18:48.468Z,98734.49
2018-10-06T01:21:23.437Z,98730.50
2018-10-06T01:23:58.042Z,98730.97
2018-10-06T01:26:33.024Z,98731.19
2018-10-06T01:29:07.429Z,98721.63
2018-10-06T01:31:42.592Z,98720.48
2018-10-06T01:34:17.316Z,98714.67
2018-10-06T01:36:51.877Z,98709.78
2018-10-06T01:39:26.727Z,98709.44
2018-10-06T01:42:01.760Z,98710.46
2018-10-06T01:44:36.288Z,98706.70
2018-10-06T01:47:10.863Z,98704.63
2018-10-06T01:49:45.792Z,98701.31
2018-10-06T01:52:20.340Z,98701.77
2018-10-06T01:54:55.831Z,98700.86
2018-10-06T01:57:31.016Z,98695.16
2018-10-06T02:00:06.134Z,98689.02
2018-10-06T02:02:41.345Z,98687.20
2018-10-06T02:05:15.812Z,98689.70
2018-10-06T02:07:50.411Z,98685.38
2018-10-06T02:10:24.984Z,98680.81
2018-10-06T02:12:59.858Z,98684.45
2018-10-06T02:15:38.406Z,98679.22
2018-10-06T02:18:13.487Z,98690.54
2018-10-06T02:20:48.434Z,98686.32
2018-10-06T02:23:23.202Z,98682.00
2018-10-06T02:25:58.410Z,98679.07
2018-10-06T02:28:33.737Z,98670.05
2018-10-06T02:31:08.396Z,98666.52
2018-10-06T02:33:43.166Z,98668.45
2018-10-06T02:36:17.821Z,98664.12
2018-10-06T02:38:52.284Z,98663.78
2018-10-06T02:41:27.213Z,98661.84
2018-10-06T02:44:02.384Z,98664.69
2018-10-06T02:46:37.101Z,98657.75
2018-10-06T02:49:12.340Z,98655.74
2018-10-06T02:51:46.945Z,98658.78
2018-10-06T02:54:21.629Z,98659.12
2018-10-06T02:56:56.764Z,98651.64
2018-10-06T02:59:31.276Z,98652.17
2018-10-06T03:02:05.979Z,98659.12
2018-10-06T03:04:40.804Z,98648.76
2018-10-06T03:07:15.992Z,98645.34
2018-10-06T03:09:50.395Z,98641.81
2018-10-06T03:12:25.126Z,98642.84
2018-10-06T03:14:59.989Z,98639.53
2018-10-06T03:17:34.612Z,98639.53
2018-10-06T03:20:09.166Z,98639.65
2018-10-06T03:22:43.737Z,98633.62
2018-10-06T03:25:18.335Z,98634.75
2018-10-06T03:27:53.447Z,98631.80
2018-10-06T03:30:28.684Z,98621.73
2018-10-06T03:33:03.458Z,98622.22
2018-10-06T03:35:38.074Z,98612.34
2018-10-06T03:38:13.025Z,98605.63
2018-10-06T03:40:47.574Z,98603.46
2018-10-06T03:43:22.124Z,98605.17
2018-10-06T03:45:57.020Z,98600.50
2018-10-06T03:48:31.949Z,98600.17
2018-10-06T03:51:06.861Z,98592.09
2018-10-06T03:53:41.313Z,98592.88
2018-10-06T03:56:15.757Z,98593.22
2018-10-06T03:58:50.345Z,98587.42
2018-10-06T04:01:24.763Z,98585.60
2018-10-06T04:03:59.188Z,98582.98
2018-10-06T04:06:33.920Z,98576.27
2018-10-06T04:09:08.873Z,98576.16
2018-10-06T04:11:43.405Z,98569.44
2018-10-06T04:14:17.952Z,98570.58
2018-10-06T04:16:52.418Z,98558.06
2018-10-06T04:19:27.002Z,98562.39
2018-10-06T04:22:01.592Z,98565.58
2018-10-06T04:24:36.216Z,98570.58
2018-10-06T04:27:10.910Z,98567.13
2018-10-06T04:29:45.751Z,98563.27
2018-10-06T04:32:20.713Z,98559.61
2018-10-06T04:34:55.407Z,98556.55
2018-10-06T04:37:30.299Z,98551.20
2018-10-06T04:40:04.920Z,98546.80
2018-10-06T04:42:40.222Z,98537.02
2018-10-06T04:45:14.971Z,98538.27
2018-10-06T04:47:49.932Z,98541.91
2018-10-06T04:50:25.255Z,98536.79
2018-10-06T04:52:59.743Z,98537.81
2018-10-06T04:55:34.570Z,98533.27
2018-10-06T04:58:09.513Z,98533.95
2018-10-06T05:00:44.035Z,98526.18
2018-10-06T05:03:18.657Z,98527.77
2018-10-06T05:05:53.339Z,98530.16
2018-10-06T05:08:28.178Z,98524.02
2018-10-06T05:11:03.039Z,98523.22
2018-10-06T05:13:37.684Z,98520.72
2018-10-06T05:16:12.336Z,98518.33
2018-10-06T05:18:47.130Z,98514.23
2018-10-06T05:21:21.896Z,98517.77
2018-10-06T05:23:56.636Z,98517.31
2018-10-06T05:26:31.273Z,98514.13
2018-10-06T05:29:06.132Z,98512.53
2018-10-06T05:31:40.595Z,98513.44
2018-10-06T05:34:15.531Z,98507.76
2018-10-06T05:36:50.651Z,98507.30
2018-10-06T05:39:25.128Z,98506.51
2018-10-06T05:42:00.042Z,98505.25
2018-10-06T05:44:34.468Z,98509.69
2018-10-06T05:47:09.074Z,98511.73
2018-10-06T05:49:43.721Z,98507.64
2018-10-06T05:52:18.229Z,98514.13
2018-10-06T05:54:52.880Z,98517.54
2018-10-06T05:57:27.584Z,98511.62
2018-10-06T06:00:02.231Z,98517.31
2018-10-06T06:02:36.754Z,98518.22
2018-10-06T06:05:14.223Z,98524.82
2018-10-06T06:07:48.794Z,98529.40
2018-10-06T06:10:45.883Z,98524.50
2018-10-06T06:13:20.656Z,98524.05
2018-10-06T06:15:55.899Z,98527.00
2018-10-06T06:18:37.710Z,98525.97
2018-10-06T06:21:12.367Z,98523.83
2018-10-06T06:23:47.027Z,98528.06
2018-10-06T06:26:21.880Z,98524.59
2018-10-06T06:28:56.739Z,98519.41
2018-10-06T06:31:31.342Z,98525.86
2018-10-06T06:34:05.857Z,98522.55
2018-10-06T06:36:40.373Z,98520.58
2018-10-06T06:39:18.783Z,98521.70
2018-10-06T06:41:59.001Z,98518.60
2018-10-06T06:44:33.899Z,98515.32
2018-10-06T06:47:08.551Z,98510.69
2018-10-06T06:49:43.252Z,98514.03
2018-10-06T06:52:18.111Z,98507.58
2018-10-06T06:54:52.755Z,98508.81
2018-10-06T06:57:27.351Z,98504.55
2018-10-06T07:00:02.051Z,98499.61
2018-10-06T07:02:36.698Z,98502.58
2018-10-06T07:05:12.630Z,98496.13
2018-10-06T07:07:47.425Z,98482.77
2018-10-06T07:10:22.271Z,98489.25
2018-10-06T07:12:56.704Z,98489.27
2018-10-06T07:15:31.225Z,98489.38
2018-10-06T07:18:05.946Z,98487.41
2018-10-06T07:20:40.688Z,98487.82
2018-10-06T07:23:15.500Z,98480.41
2018-10-06T07:25:50.490Z,98476.53
2018-10-06T07:28:25.903Z,98470.58
2018-10-06T07:31:00.667Z,98473.23
2018-10-06T07:33:35.451Z,98469.70
2018-10-06T07:36:10.380Z,98472.83
2018-10-06T07:38:45.433Z,98481.31
2018-10-06T07:41:20.382Z,98481.36
2018-10-06T07:43:55.207Z,98483.91
2018-10-06T07:46:29.855Z,98483.38
2018-10-06T07:49:04.758Z,98470.66
2018-10-06T07:51:39.670Z,98476.02
2018-10-06T07:54:14.063Z,98478.19
2018-10-06T07:56:48.714Z,98478.74
2018-10-06T07:59:27.067Z,98473.98
2018-10-06T08:02:01.923Z,98475.99
2018-10-06T08:04:36.741Z,98472.14
2018-10-06T08:07:11.393Z,98471.81
2018-10-06T08:09:46.079Z,98472.48
2018-10-06T08:12:21.761Z,98460.85
2018-10-06T08:14:56.566Z,98466.90
2018-10-06T08:17:32.316Z,98468.71
2018-10-06T08:20:07.498Z,98460.49
2018-10-06T08:22:53.574Z,98460.23
2018-10-06T08:25:35.712Z,98465.85
2018-10-06T08:28:11.095Z,98471.95
2018-10-06T08:30:45.574Z,98469.66
2018-10-06T08:33:20.912Z,98473.66
2018-10-06T08:35:55.624Z,98461.19
2018-10-06T08:38:30.632Z,98460.84
2018-10-06T08:41:05.181Z,98456.35
2018-10-06T08:43:39.745Z,98450.25
2018-10-06T08:46:14.312Z,98444.36
2018-10-06T08:48:49.327Z,98447.61
2018-10-06T08:51:23.927Z,98447.34
2018-10-06T08:53:58.458Z,98445.53
2018-10-06T08:56:33.222Z,98438.39
2018-10-06T08:59:07.824Z,98441.40
2018-10-06T09:01:42.264Z,98444.55
2018-10-06T09:04:16.747Z,98436.75
2018-10-06T09:06:51.765Z,98434.11
2018-10-06T09:09:26.286Z,98427.25
2018-10-06T09:12:00.793Z,98433.13
2018-10-06T09:14:35.716Z,98431.97
2018-10-06T09:17:10.501Z,98420.14
2018-10-06T09:19:45.853Z,98410.98
2018-10-06T09:22:20.496Z,98410.27
2018-10-06T09:24:55.024Z,98402.83
2018-10-06T09:27:29.741Z,98404.41
2018-10-06T09:30:04.426Z,98421.65
2018-10-06T09:32:39.035Z,98417.88
2018-10-06T09:35:13.628Z,98420.41
2018-10-06T09:37:48.144Z,98421.39
2018-10-06T09:40:23.040Z,98423.16
2018-10-06T09:42:57.732Z,98434.21
2018-10-06T09:45:32.330Z,98427.46
2018-10-06T09:48:06.929Z,98428.84
2018-10-06T09:50:41.711Z,98424.73
2018-10-06T09:53:16.330Z,98418.63
2018-10-06T09:55:50.877Z,98417.84
2018-10-06T09:58:25.869Z,98429.23
2018-10-06T10:01:06.306Z,98415.09
2018-10-06T10:03:46.096Z,98409.97
2018-10-06T10:06:20.708Z,98407.39
2018-10-06T10:08:55.184Z,98400.47
2018-10-06T10:11:32.094Z,98396.70
2018-10-06T10:14:06.998Z,98396.91
2018-10-06T10:16:41.531Z,98397.34
2018-10-06T10:19:16.228Z,98399.66
2018-10-06T10:21:51.470Z,98391.59
2018-10-06T10:24:25.805Z,98381.32
2018-10-06T10:27:00.661Z,98382.65
2018-10-06T10:29:35.227Z,98379.95
2018-10-06T10:32:09.961Z,98385.66
2018-10-06T10:34:44.605Z,98378.69
2018-10-06T10:37:19.381Z,98369.38
2018-10-06T10:39:53.754Z,98370.87
2018-10-06T10:42:28.485Z,98364.05
2018-10-06T10:45:03.068Z,98358.77
2018-10-06T10:47:37.564Z,98365.28
2018-10-06T10:50:12.543Z,98363.11
2018-10-06T10:52:47.044Z,98364.52
2018-10-06T10:55:21.824Z,98365.83
2018-10-06T10:57:56.383Z,98360.59
2018-10-06T11:00:30.848Z,98362.58
2018-10-06T11:03:05.493Z,98364.45
2018-10-06T11:05:40.284Z,98358.40
2018-10-06T11:08:14.668Z,98356.82
2018-10-06T11:10:50.990Z,98351.02
2018-10-06T11:13:25.983Z,98347.44
2018-10-06T11:16:03.986Z,98348.31
2018-10-06T11:18:38.821Z,98344.64
2018-10-06T11:21:13.634Z,98344.45
2018-10-06T11:23:48.772Z,98344.89
2018-10-06T11:26:23.225Z,98339.84
2018-10-06T11:28:57.745Z,98340.63
2018-10-06T11:31:32.992Z,98340.63
2018-10-06T11:34:08.777Z,98333.91
2018-10-06T11:36:43.648Z,98323.53
2018-10-06T11:39:18.232Z,98322.89
2018-10-06T11:41:53.104Z,98308.20
2018-10-06T11:44:27.768Z,98312.65
2018-10-06T11:47:02.335Z,98312.45
2018-10-06T11:49:36.860Z,98319.22
2018-10-06T11:52:11.344Z,98312.94
2018-10-06T11:54:45.956Z,98304.95
2018-10-06T11:57:20.744Z,98306.25
2018-10-06T11:59:55.595Z,98299.59
2018-10-06T12:02:34.637Z,98299.59
2018-10-06T12:05:15.453Z,98287.48
2018-10-06T12:07:50.229Z,98283.12
2018-10-06T12:10:24.717Z,98279.09
2018-10-06T12:13:00.388Z,98271.66
2018-10-06T12:15:35.313Z,98271.65
2018-10-06T12:18:09.947Z,98272.57
2018-10-06T12:20:44.462Z,98267.99
2018-10-06T12:23:19.181Z,98269.05
2018-10-06T12:25:53.727Z,98268.11
2018-10-06T12:28:28.260Z,98262.22
2018-10-06T12:31:02.960Z,98267.09
2018-10-06T12:33:37.873Z,98259.59
2018-10-06T12:36:12.522Z,98261.67
2018-10-06T12:38:47.136Z,98263.05
2018-10-06T12:41:21.909Z,98256.34
2018-10-06T12:43:56.403Z,98256.53
2018-10-06T12:46:30.766Z,98249.14
2018-10-06T12:49:05.610Z,98247.25
2018-10-06T12:51:40.519Z,98245.11
2018-10-06T12:54:15.552Z,98244.17
2018-10-06T12:56:50.262Z,98236.56
2018-10-06T12:59:24.916Z,98238.47
2018-10-06T13:01:59.519Z,98230.46
2018-10-06T13:04:34.413Z,98233.03
2018-10-06T13:07:09.037Z,98233.06
2018-10-06T13:09:43.864Z,98230.19
2018-10-06T13:12:18.546Z,98226.08
2018-10-06T13:14:53.425Z,98224.48
2018-10-06T13:17:28.631Z,98223.78
2018-10-06T13:20:03.630Z,98221.44
2018-10-06T13:22:38.141Z,98224.39
2018-10-06T13:25:13.021Z,98217.73
2018-10-06T13:27:47.563Z,98215.18
2018-10-06T13:30:22.497Z,98216.57
2018-10-06T13:32:57.446Z,98217.48
2018-10-06T13:35:32.604Z,98216.18
2018-10-06T13:38:07.616Z,98215.84
2018-10-06T13:40:42.032Z,98212.66
2018-10-06T13:43:16.663Z,98207.64
2018-10-06T13:45:51.228Z,98210.71
2018-10-06T13:48:26.639Z,98202.04
2018-10-06T13:51:01.270Z,98203.25
2018-10-06T13:53:35.639Z,98199.38
2018-10-06T13:56:10.767Z,98199.52
2018-10-06T13:58:45.293Z,98190.94
2018-10-06T14:01:20.012Z,98193.49
2018-10-06T14:03:54.890Z,98190.78
2018-10-06T14:06:29.738Z,98186.91
2018-10-06T14:09:04.800Z,98186.63
2018-10-06T14:11:39.208Z,98182.55
2018-10-06T14:14:13.598Z,98178.80
2018-10-06T14:16:48.193Z,98176.53
2018-10-06T14:19:23.044Z,98169.50
2018-10-06T14:21:57.672Z,98163.09
2018-10-06T14:24:32.301Z,98166.16
2018-10-06T14:27:07.193Z,98154.77
2018-10-06T14:29:41.813Z,98156.06
2018-10-06T14:32:16.443Z,98150.73
2018-10-06T14:34:51.076Z,98141.66
2018-10-06T14:37:25.472Z,98149.39
2018-10-06T14:40:00.298Z,98142.42
2018-10-06T14:42:34.748Z,98134.09
2018-10-06T14:45:09.186Z,98135.39
2018-10-06T14:47:43.750Z,98138.06
2018-10-06T14:50:18.294Z,98144.62
2018-10-06T14:52:53.196Z,98141.34
2018-10-06T14:55:31.242Z,98138.39
2018-10-06T14:58:06.028Z,98129.72
2018-10-06T15:00:41.624Z,98128.64
2018-10-06T15:03:16.833Z,98128.69
2018-10-06T15:05:51.376Z,98128.69
2018-10-06T15:08:26.852Z,98129.41
2018-10-06T15:11:01.323Z,98125.47
2018-10-06T15:13:35.925Z,98125.45
2018-10-06T15:16:10.904Z,98122.10
2018-10-06T15:18:45.797Z,98120.60
2018-10-06T15:21:20.437Z,98119.98
2018-10-06T15:23:54.946Z,98116.14
2018-10-06T15:26:29.533Z,98121.38
2018-10-06T15:29:04.200Z,98118.82
2018-10-06T15:31:39.040Z,98121.11
2018-10-06T15:34:13.575Z,98117.28
2018-10-06T15:36:48.207Z,98119.52
2018-10-06T15:39:22.724Z,98116.60
2018-10-06T15:41:57.276Z,98120.04
2018-10-06T15:44:32.167Z,98117.16
2018-10-06T15:47:06.625Z,98121.31
2018-10-06T15:49:41.097Z,98124.63
2018-10-06T15:52:15.946Z,98121.62
2018-10-06T15:57:47.368Z,98116.69
2018-10-06T16:03:21.940Z,98120.83
2018-10-06T16:05:56.588Z,98118.52
2018-10-06T16:08:31.093Z,98117.81
2018-10-06T16:11:05.528Z,98128.16
2018-10-06T16:13:40.141Z,98122.34
2018-10-06T16:16:14.560Z,98120.54
2018-10-06T16:19:03.964Z,98124.17
2018-10-06T16:21:38.661Z,98126.92
2018-10-06T16:24:13.141Z,98121.84
2018-10-06T16:26:47.758Z,98123.64
2018-10-06T16:29:22.400Z,98125.03
2018-10-06T16:31:56.969Z,98128.38
2018-10-06T16:34:37.020Z,98126.50
2018-10-06T16:37:11.920Z,98124.44
2018-10-06T16:39:46.770Z,98131.55
2018-10-06T16:42:21.264Z,98127.28
2018-10-06T16:44:55.916Z,98126.08
2018-10-06T16:47:30.527Z,98124.09
2018-10-06T16:50:05.084Z,98115.95
2018-10-06T16:52:39.733Z,98119.00
2018-10-06T16:55:14.324Z,98122.77
2018-10-06T16:57:48.808Z,98128.69
2018-10-06T17:00:24.093Z,98129.88
2018-10-06T17:02:58.609Z,98127.76
2018-10-06T17:05:33.205Z,98131.91
2018-10-06T17:08:08.399Z,98132.91
2018-10-06T17:10:42.867Z,98139.12
2018-10-06T17:13:17.452Z,98135.44
2018-10-06T17:15:52.713Z,98137.97
2018-10-06T17:18:27.363Z,98137.42
2018-10-06T17:21:01.964Z,98147.67
2018-10-06T17:23:36.525Z,98143.53
2018-10-06T17:26:11.006Z,98154.20
2018-10-06T17:28:46.169Z,98158.28
2018-10-06T17:31:20.652Z,98155.90
2018-10-06T17:33:55.358Z,98160.19
2018-10-06T17:36:31.220Z,98163.51
2018-10-06T17:39:07.825Z,98168.84
2018-10-06T17:41:42.579Z,98172.23
2018-10-06T17:44:23.018Z,98175.64
2018-10-06T17:46:57.752Z,98184.00
2018-10-06T17:49:32.932Z,98193.30
2018-10-06T17:52:08.200Z,98194.18
2018-10-06T17:54:42.968Z,98195.75
2018-10-06T17:57:17.576Z,98196.78
2018-10-06T17:59:52.285Z,98202.16
2018-10-06T18:02:27.090Z,98206.30
2018-10-06T18:05:01.721Z,98210.05
2018-10-06T18:07:36.393Z,98213.80
2018-10-06T18:10:11.164Z,98213.59
2018-10-06T18:12:46.215Z,98211.39
2018-10-06T18:15:20.750Z,98220.36
2018-10-06T18:17:55.704Z,98215.67
2018-10-06T18:20:30.483Z,98214.44
2018-10-06T18:23:04.832Z,98215.03
2018-10-06T18:25:39.680Z,98216.39
2018-10-06T18:28:14.753Z,98216.98
2018-10-06T18:30:49.293Z,98215.61
2018-10-06T18:33:23.946Z,98219.14
2018-10-06T18:35:58.470Z,98218.13
2018-10-06T18:38:33.169Z,98226.19
2018-10-06T18:44:17.180Z,98230.96
2018-10-06T18:46:51.772Z,98231.48
2018-10-06T18:49:26.456Z,98228.94
2018-10-06T18:52:00.885Z,98233.05
2018-10-06T18:54:35.429Z,98230.06
2018-10-06T18:57:09.870Z,98236.70
2018-10-06T18:59:44.516Z,98238.66
2018-10-06T19:02:19.132Z,98244.95
2018-10-06T19:04:54.074Z,98242.14
2018-10-06T19:07:28.764Z,98250.41
2018-10-06T19:10:03.335Z,98252.31
2018-10-06T19:12:37.924Z,98259.00
2018-10-06T19:15:12.473Z,98255.16
2018-10-06T19:17:47.053Z,98260.31
2018-10-06T19:20:21.562Z,98265.92
2018-10-06T19:22:56.259Z,98267.25
2018-10-06T19:25:30.928Z,98271.18
2018-10-06T19:28:05.473Z,98267.48
2018-10-06T19:30:40.151Z,98272.22
2018-10-06T19:33:14.808Z,98273.02
2018-10-06T19:35:49.484Z,98271.33
2018-10-06T19:38:24.225Z,98272.65
2018-10-06T19:40:59.039Z,98273.59
2018-10-06T19:43:34.012Z,98274.34
2018-10-06T19:46:08.645Z,98270.23
2018-10-06T19:48:43.109Z,98271.61
2018-10-06T19:51:17.656Z,98274.11
2018-10-06T19:53:52.398Z,98271.34
2018-10-06T19:56:27.040Z,98268.13
2018-10-06T19:59:01.708Z,98266.44
2018-10-06T20:01:36.405Z,98270.71
2018-10-06T20:04:10.935Z,98272.97
2018-10-06T20:06:45.521Z,98274.25
2018-10-06T20:09:20.053Z,98286.84
2018-10-06T20:11:54.726Z,98282.48
2018-10-06T20:14:29.241Z,98287.10
2018-10-06T20:17:03.674Z,98292.75
2018-10-06T20:19:38.667Z,98286.42
2018-10-06T20:22:13.424Z,98287.42
2018-10-06T20:24:48.388Z,98291.92
2018-10-06T20:27:22.952Z,98294.09
2018-10-06T20:29:57.677Z,98297.98
2018-10-06T20:32:32.598Z,98303.61
2018-10-06T20:35:07.270Z,98303.52
2018-10-06T20:37:41.913Z,98307.50
2018-10-06T20:40:16.896Z,98313.64
2018-10-06T20:42:51.368Z,98318.31
2018-10-06T20:45:26.104Z,98327.27
2018-10-06T20:48:00.802Z,98331.03
2018-10-06T20:50:35.407Z,98329.88
2018-10-06T20:53:09.986Z,98328.20
2018-10-06T20:55:44.835Z,98333.53
2018-10-06T20:58:19.504Z,98332.39
2018-10-06T21:00:54.149Z,98339.34
2018-10-06T21:03:28.712Z,98344.42
2018-10-06T21:06:04.089Z,98336.39
2018-10-06T21:08:38.984Z,98336.70
2018-10-06T21:11:14.018Z,98337.73
2018-10-06T21:14:02.490Z,98336.83
2018-10-06T21:16:37.707Z,98341.32
2018-10-06T21:19:12.348Z,98336.78
2018-10-06T21:21:47.052Z,98341.40
2018-10-06T21:24:21.673Z,98338.97
2018-10-06T21:26:56.117Z,98334.48
2018-10-06T21:29:30.857Z,98333.16
2018-10-06T21:32:05.329Z,98335.06
2018-10-06T21:34:40.373Z,98335.01
2018-10-06T21:37:27.959Z,98338.07
2018-10-06T21:40:02.554Z,98339.92
2018-10-06T21:42:46.663Z,98344.88
2018-10-06T21:45:21.164Z,98349.69
2018-10-06T21:48:02.336Z,98352.91
2018-10-06T21:50:50.806Z,98353.33
2018-10-06T21:53:25.477Z,98354.64
2018-10-06T21:56:00.023Z,98357.39
2018-10-06T21:58:34.456Z,98361.93
2018-10-06T22:01:11.665Z,98369.06
2018-10-06T22:03:46.789Z,98378.16
2018-10-06T22:06:22.688Z,98378.17
2018-10-06T22:08:57.659Z,98375.41
2018-10-06T22:11:32.392Z,98380.95
2018-10-06T22:14:06.931Z,98388.30
2018-10-06T22:16:41.728Z,98394.73
2018-10-06T22:19:17.139Z,98395.97
2018-10-06T22:21:51.765Z,98395.68
2018-10-06T22:24:26.510Z,98397.17
2018-10-06T22:27:01.398Z,98405.27
2018-10-06T22:29:36.167Z,98401.70
2018-10-06T22:35:10.919Z,98402.55
2018-10-06T22:37:45.861Z,98395.84
2018-10-06T22:40:20.347Z,98391.02
2018-10-06T22:42:55.092Z,98390.88
2018-10-06T22:45:39.410Z,98394.66
2018-10-06T22:48:14.755Z,98392.41
2018-10-06T22:50:49.214Z,98387.44
2018-10-06T22:53:23.755Z,98382.31
2018-10-06T22:55:58.232Z,98379.94
2018-10-06T22:58:32.783Z,98379.65
2018-10-06T23:01:07.415Z,98378.70
2018-10-06T23:03:42.014Z,98378.34
2018-10-06T23:06:16.778Z,98375.97
2018-10-06T23:08:51.479Z,98381.81
2018-10-06T23:11:25.962Z,98382.67
2018-10-06T23:14:00.451Z,98385.84
2018-10-06T23:16:35.361Z,98381.52
2018-10-06T23:19:10.013Z,98365.61
2018-10-06T23:21:44.720Z,98370.87
2018-10-06T23:24:19.428Z,98377.79
2018-10-06T23:26:54.216Z,98387.24
2018-10-06T23:29:29.958Z,98381.98
2018-10-06T23:32:05.026Z,98381.98
2018-10-06T23:34:39.704Z,98390.27
2018-10-06T23:37:14.495Z,98395.39
2018-10-06T23:39:49.135Z,98396.93
2018-10-06T23:42:23.823Z,98387.77
2018-10-06T23:45:17.548Z,98393.47
2018-10-06T23:50:58.388Z,98400.75
2018-10-06T23:53:32.993Z,98401.84
2018-10-06T23:56:07.664Z,98398.88
2018-10-06T23:58:42.154Z,98409.67
